sensor_id;sensor_type;location;lat;lon;timestamp;temperature;humidity
69932;DHT22;57243;52.064;5.116;2022-07-17T00:02:06;23.40;57.90
69932;DHT22;57243;52.064;5.116;2022-07-17T00:04:32;23.40;57.70
69932;DHT22;57243;52.064;5.116;2022-07-17T00:06:57;23.40;57.70
69932;DHT22;57243;52.064;5.116;2022-07-17T00:09:23;23.40;57.70
69932;DHT22;57243;52.064;5.116;2022-07-17T00:11:48;23.40;57.80
69932;DHT22;57243;52.064;5.116;2022-07-17T00:14:14;23.40;57.80
69932;DHT22;57243;52.064;5.116;2022-07-17T00:16:40;23.40;57.70
69932;DHT22;57243;52.064;5.116;2022-07-17T00:19:05;23.40;57.60
69932;DHT22;57243;52.064;5.116;2022-07-17T00:21:32;23.40;57.60
69932;DHT22;57243;52.064;5.116;2022-07-17T00:23:58;23.40;57.60
69932;DHT22;57243;52.064;5.116;2022-07-17T00:26:23;23.40;57.50
69932;DHT22;57243;52.064;5.116;2022-07-17T00:28:49;23.40;57.40
69932;DHT22;57243;52.064;5.116;2022-07-17T00:31:15;23.40;57.50
69932;DHT22;57243;52.064;5.116;2022-07-17T00:33:40;23.40;57.40
69932;DHT22;57243;52.064;5.116;2022-07-17T00:36:07;23.40;57.50
69932;DHT22;57243;52.064;5.116;2022-07-17T00:38:32;23.40;57.40
69932;DHT22;57243;52.064;5.116;2022-07-17T00:40:59;23.40;57.40
69932;DHT22;57243;52.064;5.116;2022-07-17T00:43:25;23.40;57.40
69932;DHT22;57243;52.064;5.116;2022-07-17T00:45:56;23.40;57.40
69932;DHT22;57243;52.064;5.116;2022-07-17T00:48:22;23.40;57.40
69932;DHT22;57243;52.064;5.116;2022-07-17T00:50:48;23.40;57.40
69932;DHT22;57243;52.064;5.116;2022-07-17T00:53:13;23.30;57.50
69932;DHT22;57243;52.064;5.116;2022-07-17T00:55:40;23.40;57.40
69932;DHT22;57243;52.064;5.116;2022-07-17T00:58:07;23.40;57.40
69932;DHT22;57243;52.064;5.116;2022-07-17T01:00:33;23.40;57.40
69932;DHT22;57243;52.064;5.116;2022-07-17T01:02:59;23.40;57.30
69932;DHT22;57243;52.064;5.116;2022-07-17T01:05:25;23.40;57.40
69932;DHT22;57243;52.064;5.116;2022-07-17T01:07:51;23.30;57.30
69932;DHT22;57243;52.064;5.116;2022-07-17T01:10:18;23.30;57.30
69932;DHT22;57243;52.064;5.116;2022-07-17T01:12:46;23.30;57.30
69932;DHT22;57243;52.064;5.116;2022-07-17T01:15:13;23.30;57.30
69932;DHT22;57243;52.064;5.116;2022-07-17T01:17:40;23.30;57.40
69932;DHT22;57243;52.064;5.116;2022-07-17T01:20:08;23.30;57.30
69932;DHT22;57243;52.064;5.116;2022-07-17T01:22:45;23.40;57.30
69932;DHT22;57243;52.064;5.116;2022-07-17T01:25:11;23.30;57.30
69932;DHT22;57243;52.064;5.116;2022-07-17T01:27:37;23.30;57.30
69932;DHT22;57243;52.064;5.116;2022-07-17T01:30:04;23.30;57.20
69932;DHT22;57243;52.064;5.116;2022-07-17T01:32:32;23.30;57.30
69932;DHT22;57243;52.064;5.116;2022-07-17T01:34:58;23.30;57.20
69932;DHT22;57243;52.064;5.116;2022-07-17T01:37:23;23.30;57.20
69932;DHT22;57243;52.064;5.116;2022-07-17T01:39:49;23.30;57.20
69932;DHT22;57243;52.064;5.116;2022-07-17T01:42:18;23.30;57.20
69932;DHT22;57243;52.064;5.116;2022-07-17T01:44:44;23.30;57.20
69932;DHT22;57243;52.064;5.116;2022-07-17T01:47:11;23.30;57.30
69932;DHT22;57243;52.064;5.116;2022-07-17T01:49:37;23.30;57.10
69932;DHT22;57243;52.064;5.116;2022-07-17T01:52:03;23.30;57.10
69932;DHT22;57243;52.064;5.116;2022-07-17T01:54:31;23.30;57.30
69932;DHT22;57243;52.064;5.116;2022-07-17T01:56:58;23.30;57.10
69932;DHT22;57243;52.064;5.116;2022-07-17T01:59:23;23.30;57.10
69932;DHT22;57243;52.064;5.116;2022-07-17T02:01:49;23.30;57.10
69932;DHT22;57243;52.064;5.116;2022-07-17T02:04:14;23.30;57.10
69932;DHT22;57243;52.064;5.116;2022-07-17T02:06:40;23.30;57.30
69932;DHT22;57243;52.064;5.116;2022-07-17T02:09:06;23.30;57.30
69932;DHT22;57243;52.064;5.116;2022-07-17T02:11:31;23.30;57.20
69932;DHT22;57243;52.064;5.116;2022-07-17T02:13:57;23.30;57.00
69932;DHT22;57243;52.064;5.116;2022-07-17T02:16:22;23.30;57.00
69932;DHT22;57243;52.064;5.116;2022-07-17T02:18:48;23.30;57.10
69932;DHT22;57243;52.064;5.116;2022-07-17T02:21:13;23.30;57.10
69932;DHT22;57243;52.064;5.116;2022-07-17T02:23:39;23.30;57.30
69932;DHT22;57243;52.064;5.116;2022-07-17T02:26:05;23.30;57.30
69932;DHT22;57243;52.064;5.116;2022-07-17T02:28:30;23.30;57.10
69932;DHT22;57243;52.064;5.116;2022-07-17T02:30:56;23.30;57.10
69932;DHT22;57243;52.064;5.116;2022-07-17T02:33:21;23.30;57.00
69932;DHT22;57243;52.064;5.116;2022-07-17T02:35:47;23.30;57.10
69932;DHT22;57243;52.064;5.116;2022-07-17T02:38:13;23.30;57.30
69932;DHT22;57243;52.064;5.116;2022-07-17T02:40:38;23.30;56.90
69932;DHT22;57243;52.064;5.116;2022-07-17T02:43:04;23.30;57.00
69932;DHT22;57243;52.064;5.116;2022-07-17T02:45:29;23.30;57.10
69932;DHT22;57243;52.064;5.116;2022-07-17T02:47:55;23.30;57.00
69932;DHT22;57243;52.064;5.116;2022-07-17T02:50:21;23.30;56.90
69932;DHT22;57243;52.064;5.116;2022-07-17T02:52:47;23.20;57.00
69932;DHT22;57243;52.064;5.116;2022-07-17T02:55:15;23.20;57.10
69932;DHT22;57243;52.064;5.116;2022-07-17T02:57:42;23.30;56.90
69932;DHT22;57243;52.064;5.116;2022-07-17T03:00:10;23.20;57.00
69932;DHT22;57243;52.064;5.116;2022-07-17T03:02:36;23.20;57.10
69932;DHT22;57243;52.064;5.116;2022-07-17T03:05:02;23.20;57.10
69932;DHT22;57243;52.064;5.116;2022-07-17T03:07:27;23.20;57.00
69932;DHT22;57243;52.064;5.116;2022-07-17T03:09:53;23.20;57.00
69932;DHT22;57243;52.064;5.116;2022-07-17T03:12:19;23.20;56.90
69932;DHT22;57243;52.064;5.116;2022-07-17T03:14:44;23.20;57.00
69932;DHT22;57243;52.064;5.116;2022-07-17T03:17:10;23.20;56.80
69932;DHT22;57243;52.064;5.116;2022-07-17T03:19:35;23.20;56.90
69932;DHT22;57243;52.064;5.116;2022-07-17T03:22:01;23.20;56.70
69932;DHT22;57243;52.064;5.116;2022-07-17T03:24:27;23.20;56.90
69932;DHT22;57243;52.064;5.116;2022-07-17T03:26:52;23.20;56.80
69932;DHT22;57243;52.064;5.116;2022-07-17T03:29:18;23.20;56.80
69932;DHT22;57243;52.064;5.116;2022-07-17T03:31:45;23.20;56.60
69932;DHT22;57243;52.064;5.116;2022-07-17T03:34:10;23.20;56.70
69932;DHT22;57243;52.064;5.116;2022-07-17T03:36:36;23.20;56.60
69932;DHT22;57243;52.064;5.116;2022-07-17T03:39:02;23.20;56.70
69932;DHT22;57243;52.064;5.116;2022-07-17T03:41:28;23.20;56.50
69932;DHT22;57243;52.064;5.116;2022-07-17T03:43:53;23.20;56.70
69932;DHT22;57243;52.064;5.116;2022-07-17T03:46:20;23.20;56.70
69932;DHT22;57243;52.064;5.116;2022-07-17T03:48:45;23.20;56.70
69932;DHT22;57243;52.064;5.116;2022-07-17T03:51:11;23.20;56.50
69932;DHT22;57243;52.064;5.116;2022-07-17T03:53:37;23.20;56.80
69932;DHT22;57243;52.064;5.116;2022-07-17T03:56:03;23.20;56.70
69932;DHT22;57243;52.064;5.116;2022-07-17T03:58:28;23.20;56.70
69932;DHT22;57243;52.064;5.116;2022-07-17T04:00:54;23.20;56.50
69932;DHT22;57243;52.064;5.116;2022-07-17T04:03:20;23.20;57.10
69932;DHT22;57243;52.064;5.116;2022-07-17T04:05:45;23.20;56.70
69932;DHT22;57243;52.064;5.116;2022-07-17T04:08:11;23.20;56.60
69932;DHT22;57243;52.064;5.116;2022-07-17T04:10:38;23.20;56.60
69932;DHT22;57243;52.064;5.116;2022-07-17T04:13:04;23.20;56.50
69932;DHT22;57243;52.064;5.116;2022-07-17T04:15:30;23.20;56.40
69932;DHT22;57243;52.064;5.116;2022-07-17T04:18:14;23.20;56.60
69932;DHT22;57243;52.064;5.116;2022-07-17T04:20:40;23.30;56.50
69932;DHT22;57243;52.064;5.116;2022-07-17T04:23:06;23.20;56.60
69932;DHT22;57243;52.064;5.116;2022-07-17T04:25:31;23.20;56.40
69932;DHT22;57243;52.064;5.116;2022-07-17T04:27:57;23.20;56.40
69932;DHT22;57243;52.064;5.116;2022-07-17T04:30:23;23.20;56.70
69932;DHT22;57243;52.064;5.116;2022-07-17T04:32:48;23.20;56.30
69932;DHT22;57243;52.064;5.116;2022-07-17T04:35:14;23.20;56.90
69932;DHT22;57243;52.064;5.116;2022-07-17T04:37:40;23.20;56.50
69932;DHT22;57243;52.064;5.116;2022-07-17T04:40:06;23.20;56.30
69932;DHT22;57243;52.064;5.116;2022-07-17T04:42:32;23.20;56.30
69932;DHT22;57243;52.064;5.116;2022-07-17T04:44:58;23.20;56.30
69932;DHT22;57243;52.064;5.116;2022-07-17T04:47:23;23.20;56.30
69932;DHT22;57243;52.064;5.116;2022-07-17T04:49:49;23.20;56.10
69932;DHT22;57243;52.064;5.116;2022-07-17T04:52:15;23.20;56.00
69932;DHT22;57243;52.064;5.116;2022-07-17T04:54:40;23.20;56.10
69932;DHT22;57243;52.064;5.116;2022-07-17T04:57:06;23.20;56.00
69932;DHT22;57243;52.064;5.116;2022-07-17T04:59:31;23.20;56.10
69932;DHT22;57243;52.064;5.116;2022-07-17T05:01:57;23.20;56.10
69932;DHT22;57243;52.064;5.116;2022-07-17T05:04:23;23.20;56.10
69932;DHT22;57243;52.064;5.116;2022-07-17T05:06:48;23.20;55.90
69932;DHT22;57243;52.064;5.116;2022-07-17T05:09:14;23.20;55.80
69932;DHT22;57243;52.064;5.116;2022-07-17T05:11:40;23.20;56.10
69932;DHT22;57243;52.064;5.116;2022-07-17T05:14:05;23.20;55.90
69932;DHT22;57243;52.064;5.116;2022-07-17T05:16:31;23.20;55.80
69932;DHT22;57243;52.064;5.116;2022-07-17T05:18:57;23.20;55.70
69932;DHT22;57243;52.064;5.116;2022-07-17T05:21:22;23.20;55.70
69932;DHT22;57243;52.064;5.116;2022-07-17T05:23:48;23.20;55.80
69932;DHT22;57243;52.064;5.116;2022-07-17T05:26:13;23.20;55.80
69932;DHT22;57243;52.064;5.116;2022-07-17T05:28:39;23.20;55.70
69932;DHT22;57243;52.064;5.116;2022-07-17T05:31:05;23.20;55.50
69932;DHT22;57243;52.064;5.116;2022-07-17T05:33:31;23.20;55.80
69932;DHT22;57243;52.064;5.116;2022-07-17T05:35:56;23.20;55.50
69932;DHT22;57243;52.064;5.116;2022-07-17T05:38:22;23.20;55.70
69932;DHT22;57243;52.064;5.116;2022-07-17T05:40:48;23.20;54.90
69932;DHT22;57243;52.064;5.116;2022-07-17T05:43:13;23.20;55.20
69932;DHT22;57243;52.064;5.116;2022-07-17T05:45:39;23.20;54.70
69932;DHT22;57243;52.064;5.116;2022-07-17T05:48:06;23.20;54.30
69932;DHT22;57243;52.064;5.116;2022-07-17T05:50:33;23.20;54.90
69932;DHT22;57243;52.064;5.116;2022-07-17T05:52:59;23.20;55.20
69932;DHT22;57243;52.064;5.116;2022-07-17T05:55:24;23.20;54.50
69932;DHT22;57243;52.064;5.116;2022-07-17T05:57:50;23.20;54.40
69932;DHT22;57243;52.064;5.116;2022-07-17T06:00:16;23.20;54.30
69932;DHT22;57243;52.064;5.116;2022-07-17T06:02:41;23.20;53.60
69932;DHT22;57243;52.064;5.116;2022-07-17T06:05:08;23.20;53.70
69932;DHT22;57243;52.064;5.116;2022-07-17T06:07:33;23.20;53.50
69932;DHT22;57243;52.064;5.116;2022-07-17T06:09:59;23.20;53.90
69932;DHT22;57243;52.064;5.116;2022-07-17T06:12:24;23.20;53.70
69932;DHT22;57243;52.064;5.116;2022-07-17T06:14:50;23.20;53.10
69932;DHT22;57243;52.064;5.116;2022-07-17T06:17:16;23.20;52.60
69932;DHT22;57243;52.064;5.116;2022-07-17T06:19:41;23.20;52.50
69932;DHT22;57243;52.064;5.116;2022-07-17T06:22:07;23.20;53.90
69932;DHT22;57243;52.064;5.116;2022-07-17T06:24:32;23.20;53.60
69932;DHT22;57243;52.064;5.116;2022-07-17T06:26:58;23.20;53.60
69932;DHT22;57243;52.064;5.116;2022-07-17T06:29:24;23.20;53.10
69932;DHT22;57243;52.064;5.116;2022-07-17T06:31:49;23.20;53.60
69932;DHT22;57243;52.064;5.116;2022-07-17T06:34:15;23.20;53.80
69932;DHT22;57243;52.064;5.116;2022-07-17T06:36:40;23.20;53.30
69932;DHT22;57243;52.064;5.116;2022-07-17T06:39:06;23.20;53.90
69932;DHT22;57243;52.064;5.116;2022-07-17T06:41:31;23.20;52.60
69932;DHT22;57243;52.064;5.116;2022-07-17T06:43:57;23.20;52.60
69932;DHT22;57243;52.064;5.116;2022-07-17T06:46:22;23.30;53.70
69932;DHT22;57243;52.064;5.116;2022-07-17T06:48:48;23.20;53.50
69932;DHT22;57243;52.064;5.116;2022-07-17T06:51:17;23.20;52.90
69932;DHT22;57243;52.064;5.116;2022-07-17T06:53:43;23.20;51.60
69932;DHT22;57243;52.064;5.116;2022-07-17T06:56:08;23.20;53.20
69932;DHT22;57243;52.064;5.116;2022-07-17T06:58:35;23.20;53.20
69932;DHT22;57243;52.064;5.116;2022-07-17T07:01:00;23.20;52.70
69932;DHT22;57243;52.064;5.116;2022-07-17T07:03:26;23.20;53.20
69932;DHT22;57243;52.064;5.116;2022-07-17T07:05:51;23.20;52.60
69932;DHT22;57243;52.064;5.116;2022-07-17T07:08:17;23.20;51.80
69932;DHT22;57243;52.064;5.116;2022-07-17T07:10:42;23.20;52.20
69932;DHT22;57243;52.064;5.116;2022-07-17T07:13:09;23.20;51.30
69932;DHT22;57243;52.064;5.116;2022-07-17T07:15:35;23.20;51.30
69932;DHT22;57243;52.064;5.116;2022-07-17T07:18:01;23.30;50.90
69932;DHT22;57243;52.064;5.116;2022-07-17T07:20:26;23.30;52.10
69932;DHT22;57243;52.064;5.116;2022-07-17T07:22:52;23.30;51.90
69932;DHT22;57243;52.064;5.116;2022-07-17T07:25:17;23.30;50.60
69932;DHT22;57243;52.064;5.116;2022-07-17T07:27:43;23.20;50.30
69932;DHT22;57243;52.064;5.116;2022-07-17T07:30:09;23.20;50.40
69932;DHT22;57243;52.064;5.116;2022-07-17T07:32:36;23.20;50.20
69932;DHT22;57243;52.064;5.116;2022-07-17T07:35:03;23.20;50.90
69932;DHT22;57243;52.064;5.116;2022-07-17T07:37:29;23.30;51.40
69932;DHT22;57243;52.064;5.116;2022-07-17T07:39:54;23.30;52.30
69932;DHT22;57243;52.064;5.116;2022-07-17T07:42:20;23.30;52.30
69932;DHT22;57243;52.064;5.116;2022-07-17T07:44:46;23.30;52.50
69932;DHT22;57243;52.064;5.116;2022-07-17T07:47:11;23.30;52.80
69932;DHT22;57243;52.064;5.116;2022-07-17T07:49:37;23.30;52.50
69932;DHT22;57243;52.064;5.116;2022-07-17T07:52:03;23.30;52.40
69932;DHT22;57243;52.064;5.116;2022-07-17T07:54:28;23.40;52.60
69932;DHT22;57243;52.064;5.116;2022-07-17T07:56:54;23.30;52.40
69932;DHT22;57243;52.064;5.116;2022-07-17T07:59:20;23.40;53.50
69932;DHT22;57243;52.064;5.116;2022-07-17T08:01:46;23.40;53.50
69932;DHT22;57243;52.064;5.116;2022-07-17T08:04:11;23.40;53.40
69932;DHT22;57243;52.064;5.116;2022-07-17T08:06:37;23.50;52.50
69932;DHT22;57243;52.064;5.116;2022-07-17T08:09:04;23.40;53.10
69932;DHT22;57243;52.064;5.116;2022-07-17T08:11:29;23.40;51.70
69932;DHT22;57243;52.064;5.116;2022-07-17T08:13:55;23.40;53.10
69932;DHT22;57243;52.064;5.116;2022-07-17T08:16:21;23.50;52.90
69932;DHT22;57243;52.064;5.116;2022-07-17T08:18:46;23.40;53.20
69932;DHT22;57243;52.064;5.116;2022-07-17T08:21:12;23.40;53.10
69932;DHT22;57243;52.064;5.116;2022-07-17T08:23:37;23.50;53.30
69932;DHT22;57243;52.064;5.116;2022-07-17T08:26:03;23.50;53.10
69932;DHT22;57243;52.064;5.116;2022-07-17T08:28:29;23.50;53.00
69932;DHT22;57243;52.064;5.116;2022-07-17T08:30:54;23.50;52.50
69932;DHT22;57243;52.064;5.116;2022-07-17T08:33:20;23.40;52.30
69932;DHT22;57243;52.064;5.116;2022-07-17T08:35:45;23.50;52.70
69932;DHT22;57243;52.064;5.116;2022-07-17T08:38:11;23.50;52.50
69932;DHT22;57243;52.064;5.116;2022-07-17T08:40:38;23.40;52.10
69932;DHT22;57243;52.064;5.116;2022-07-17T08:43:06;23.50;52.80
69932;DHT22;57243;52.064;5.116;2022-07-17T08:45:32;23.40;52.80
69932;DHT22;57243;52.064;5.116;2022-07-17T08:47:59;23.40;52.70
69932;DHT22;57243;52.064;5.116;2022-07-17T08:50:30;23.40;52.40
69932;DHT22;57243;52.064;5.116;2022-07-17T08:52:56;23.40;51.00
69932;DHT22;57243;52.064;5.116;2022-07-17T08:55:22;23.40;50.40
69932;DHT22;57243;52.064;5.116;2022-07-17T08:57:48;23.40;51.50
69932;DHT22;57243;52.064;5.116;2022-07-17T09:00:15;23.40;50.90
69932;DHT22;57243;52.064;5.116;2022-07-17T09:05:24;23.40;51.10
69932;DHT22;57243;52.064;5.116;2022-07-17T09:07:50;23.40;52.30
69932;DHT22;57243;52.064;5.116;2022-07-17T09:10:15;23.40;52.10
69932;DHT22;57243;52.064;5.116;2022-07-17T09:12:41;23.40;50.40
69932;DHT22;57243;52.064;5.116;2022-07-17T09:15:17;23.40;49.90
69932;DHT22;57243;52.064;5.116;2022-07-17T09:17:51;23.40;49.80
69932;DHT22;57243;52.064;5.116;2022-07-17T09:20:18;23.30;49.40
69932;DHT22;57243;52.064;5.116;2022-07-17T09:22:54;23.30;49.30
69932;DHT22;57243;52.064;5.116;2022-07-17T09:25:20;23.30;49.20
69932;DHT22;57243;52.064;5.116;2022-07-17T09:27:57;23.30;49.40
69932;DHT22;57243;52.064;5.116;2022-07-17T09:30:22;23.30;49.50
69932;DHT22;57243;52.064;5.116;2022-07-17T09:32:48;23.30;49.10
69932;DHT22;57243;52.064;5.116;2022-07-17T09:35:15;23.30;49.30
69932;DHT22;57243;52.064;5.116;2022-07-17T09:37:42;23.30;49.90
69932;DHT22;57243;52.064;5.116;2022-07-17T09:40:12;23.40;49.40
69932;DHT22;57243;52.064;5.116;2022-07-17T09:43:02;23.40;49.00
69932;DHT22;57243;52.064;5.116;2022-07-17T09:45:27;23.40;50.50
69932;DHT22;57243;52.064;5.116;2022-07-17T09:47:54;23.40;50.10
69932;DHT22;57243;52.064;5.116;2022-07-17T09:50:20;23.40;50.70
69932;DHT22;57243;52.064;5.116;2022-07-17T09:52:47;23.40;50.40
69932;DHT22;57243;52.064;5.116;2022-07-17T09:55:15;23.40;50.50
69932;DHT22;57243;52.064;5.116;2022-07-17T09:57:42;23.40;50.50
69932;DHT22;57243;52.064;5.116;2022-07-17T10:00:09;23.40;50.60
69932;DHT22;57243;52.064;5.116;2022-07-17T10:02:44;23.40;50.50
69932;DHT22;57243;52.064;5.116;2022-07-17T10:05:11;23.40;49.50
69932;DHT22;57243;52.064;5.116;2022-07-17T10:07:43;23.40;49.50
69932;DHT22;57243;52.064;5.116;2022-07-17T10:10:13;23.40;49.50
69932;DHT22;57243;52.064;5.116;2022-07-17T10:12:41;23.40;49.50
69932;DHT22;57243;52.064;5.116;2022-07-17T10:15:08;23.40;49.40
69932;DHT22;57243;52.064;5.116;2022-07-17T10:17:34;23.30;49.50
69932;DHT22;57243;52.064;5.116;2022-07-17T10:20:00;23.30;49.50
69932;DHT22;57243;52.064;5.116;2022-07-17T10:22:26;23.40;49.40
69932;DHT22;57243;52.064;5.116;2022-07-17T10:24:54;23.30;49.60
69932;DHT22;57243;52.064;5.116;2022-07-17T10:32:30;23.40;50.20
69932;DHT22;57243;52.064;5.116;2022-07-17T10:45:16;23.40;50.40
69932;DHT22;57243;52.064;5.116;2022-07-17T10:50:15;23.40;50.50
69932;DHT22;57243;52.064;5.116;2022-07-17T10:52:41;23.40;50.40
69932;DHT22;57243;52.064;5.116;2022-07-17T10:55:18;23.40;50.60
69932;DHT22;57243;52.064;5.116;2022-07-17T10:57:44;23.40;50.70
69932;DHT22;57243;52.064;5.116;2022-07-17T11:00:11;23.40;50.50
69932;DHT22;57243;52.064;5.116;2022-07-17T11:02:37;23.40;51.00
69932;DHT22;57243;52.064;5.116;2022-07-17T11:05:13;23.40;50.60
69932;DHT22;57243;52.064;5.116;2022-07-17T11:08:08;23.40;51.20
69932;DHT22;57243;52.064;5.116;2022-07-17T11:10:36;23.40;50.50
69932;DHT22;57243;52.064;5.116;2022-07-17T11:13:14;23.40;50.50
69932;DHT22;57243;52.064;5.116;2022-07-17T11:15:48;23.40;50.60
69932;DHT22;57243;52.064;5.116;2022-07-17T11:18:15;23.40;50.60
69932;DHT22;57243;52.064;5.116;2022-07-17T11:21:07;23.40;50.60
69932;DHT22;57243;52.064;5.116;2022-07-17T11:23:33;23.40;50.50
69932;DHT22;57243;52.064;5.116;2022-07-17T11:26:02;23.40;50.80
69932;DHT22;57243;52.064;5.116;2022-07-17T11:28:36;23.40;50.60
69932;DHT22;57243;52.064;5.116;2022-07-17T11:31:04;23.40;50.60
69932;DHT22;57243;52.064;5.116;2022-07-17T11:33:30;23.40;50.60
69932;DHT22;57243;52.064;5.116;2022-07-17T11:35:56;23.40;50.50
69932;DHT22;57243;52.064;5.116;2022-07-17T11:38:29;23.50;50.50
69932;DHT22;57243;52.064;5.116;2022-07-17T11:40:56;23.50;50.50
69932;DHT22;57243;52.064;5.116;2022-07-17T11:43:22;23.50;50.80
69932;DHT22;57243;52.064;5.116;2022-07-17T11:45:48;23.50;50.60
69932;DHT22;57243;52.064;5.116;2022-07-17T11:48:14;23.40;50.60
69932;DHT22;57243;52.064;5.116;2022-07-17T11:50:39;23.50;50.50
69932;DHT22;57243;52.064;5.116;2022-07-17T11:53:06;23.50;50.60
69932;DHT22;57243;52.064;5.116;2022-07-17T11:55:36;23.50;50.60
69932;DHT22;57243;52.064;5.116;2022-07-17T11:58:02;23.50;50.50
69932;DHT22;57243;52.064;5.116;2022-07-17T12:00:28;23.50;50.60
69932;DHT22;57243;52.064;5.116;2022-07-17T12:03:01;23.50;50.60
69932;DHT22;57243;52.064;5.116;2022-07-17T12:05:29;23.50;50.60
69932;DHT22;57243;52.064;5.116;2022-07-17T12:07:55;23.50;50.60
69932;DHT22;57243;52.064;5.116;2022-07-17T12:10:22;23.50;50.60
69932;DHT22;57243;52.064;5.116;2022-07-17T12:12:52;23.50;50.60
69932;DHT22;57243;52.064;5.116;2022-07-17T12:15:18;23.50;50.60
69932;DHT22;57243;52.064;5.116;2022-07-17T12:17:43;23.50;50.60
69932;DHT22;57243;52.064;5.116;2022-07-17T12:20:09;23.50;50.60
69932;DHT22;57243;52.064;5.116;2022-07-17T12:22:48;23.50;50.60
69932;DHT22;57243;52.064;5.116;2022-07-17T12:25:27;23.50;50.50
69932;DHT22;57243;52.064;5.116;2022-07-17T12:27:54;23.50;50.70
69932;DHT22;57243;52.064;5.116;2022-07-17T12:30:20;23.50;50.70
69932;DHT22;57243;52.064;5.116;2022-07-17T12:32:46;23.50;50.50
69932;DHT22;57243;52.064;5.116;2022-07-17T12:35:13;23.50;50.50
69932;DHT22;57243;52.064;5.116;2022-07-17T12:37:39;23.50;50.50
69932;DHT22;57243;52.064;5.116;2022-07-17T12:40:06;23.50;50.60
69932;DHT22;57243;52.064;5.116;2022-07-17T12:42:31;23.50;50.50
69932;DHT22;57243;52.064;5.116;2022-07-17T12:44:57;23.50;50.60
69932;DHT22;57243;52.064;5.116;2022-07-17T12:47:23;23.50;50.50
69932;DHT22;57243;52.064;5.116;2022-07-17T12:49:49;23.50;50.60
69932;DHT22;57243;52.064;5.116;2022-07-17T12:52:14;23.50;50.50
69932;DHT22;57243;52.064;5.116;2022-07-17T12:54:40;23.50;50.60
69932;DHT22;57243;52.064;5.116;2022-07-17T12:57:06;23.50;50.60
69932;DHT22;57243;52.064;5.116;2022-07-17T12:59:32;23.50;50.70
69932;DHT22;57243;52.064;5.116;2022-07-17T13:01:58;23.50;50.50
69932;DHT22;57243;52.064;5.116;2022-07-17T13:04:24;23.50;50.50
69932;DHT22;57243;52.064;5.116;2022-07-17T13:06:50;23.50;50.60
69932;DHT22;57243;52.064;5.116;2022-07-17T13:09:16;23.50;50.50
69932;DHT22;57243;52.064;5.116;2022-07-17T13:11:42;23.50;50.50
69932;DHT22;57243;52.064;5.116;2022-07-17T13:14:08;23.50;50.80
69932;DHT22;57243;52.064;5.116;2022-07-17T13:16:38;23.50;50.60
69932;DHT22;57243;52.064;5.116;2022-07-17T13:19:04;23.50;50.60
69932;DHT22;57243;52.064;5.116;2022-07-17T13:21:30;23.50;50.80
69932;DHT22;57243;52.064;5.116;2022-07-17T13:23:56;23.50;50.70
69932;DHT22;57243;52.064;5.116;2022-07-17T13:26:22;23.50;50.60
69932;DHT22;57243;52.064;5.116;2022-07-17T13:28:47;23.50;50.50
69932;DHT22;57243;52.064;5.116;2022-07-17T13:31:13;23.50;50.50
69932;DHT22;57243;52.064;5.116;2022-07-17T13:33:39;23.50;50.60
69932;DHT22;57243;52.064;5.116;2022-07-17T13:36:05;23.50;50.60
69932;DHT22;57243;52.064;5.116;2022-07-17T13:38:30;23.50;50.40
69932;DHT22;57243;52.064;5.116;2022-07-17T13:40:56;23.50;50.40
69932;DHT22;57243;52.064;5.116;2022-07-17T13:43:21;23.50;50.50
69932;DHT22;57243;52.064;5.116;2022-07-17T13:45:47;23.60;50.50
69932;DHT22;57243;52.064;5.116;2022-07-17T13:48:13;23.50;50.40
69932;DHT22;57243;52.064;5.116;2022-07-17T13:50:40;23.60;50.60
69932;DHT22;57243;52.064;5.116;2022-07-17T13:53:06;23.50;50.60
69932;DHT22;57243;52.064;5.116;2022-07-17T13:55:32;23.60;50.40
69932;DHT22;57243;52.064;5.116;2022-07-17T13:57:57;23.60;50.60
69932;DHT22;57243;52.064;5.116;2022-07-17T14:00:24;23.50;50.40
69932;DHT22;57243;52.064;5.116;2022-07-17T14:02:50;23.60;50.40
69932;DHT22;57243;52.064;5.116;2022-07-17T14:05:15;23.60;50.30
69932;DHT22;57243;52.064;5.116;2022-07-17T14:07:41;23.60;50.70
69932;DHT22;57243;52.064;5.116;2022-07-17T14:10:07;23.50;50.30
69932;DHT22;57243;52.064;5.116;2022-07-17T14:12:33;23.50;50.30
69932;DHT22;57243;52.064;5.116;2022-07-17T14:14:58;23.60;50.20
69932;DHT22;57243;52.064;5.116;2022-07-17T14:17:24;23.60;50.40
69932;DHT22;57243;52.064;5.116;2022-07-17T14:19:50;23.50;50.20
69932;DHT22;57243;52.064;5.116;2022-07-17T14:22:16;23.60;50.40
69932;DHT22;57243;52.064;5.116;2022-07-17T14:24:41;23.60;50.40
69932;DHT22;57243;52.064;5.116;2022-07-17T14:27:07;23.60;50.20
69932;DHT22;57243;52.064;5.116;2022-07-17T14:29:32;23.60;50.50
69932;DHT22;57243;52.064;5.116;2022-07-17T14:31:58;23.60;50.40
69932;DHT22;57243;52.064;5.116;2022-07-17T14:34:24;23.60;50.60
69932;DHT22;57243;52.064;5.116;2022-07-17T14:36:49;23.70;50.70
69932;DHT22;57243;52.064;5.116;2022-07-17T14:39:16;23.70;50.70
69932;DHT22;57243;52.064;5.116;2022-07-17T14:41:42;23.70;50.70
69932;DHT22;57243;52.064;5.116;2022-07-17T14:44:10;23.70;50.90
69932;DHT22;57243;52.064;5.116;2022-07-17T14:46:36;23.70;50.80
69932;DHT22;57243;52.064;5.116;2022-07-17T14:49:02;23.70;50.80
69932;DHT22;57243;52.064;5.116;2022-07-17T14:51:27;23.80;50.90
69932;DHT22;57243;52.064;5.116;2022-07-17T14:53:53;23.80;50.90
69932;DHT22;57243;52.064;5.116;2022-07-17T14:56:19;23.80;50.80
69932;DHT22;57243;52.064;5.116;2022-07-17T14:58:45;23.80;50.90
69932;DHT22;57243;52.064;5.116;2022-07-17T15:01:10;23.80;50.70
69932;DHT22;57243;52.064;5.116;2022-07-17T15:03:36;23.80;50.80
69932;DHT22;57243;52.064;5.116;2022-07-17T15:06:02;23.80;50.90
69932;DHT22;57243;52.064;5.116;2022-07-17T15:08:27;23.80;50.70
69932;DHT22;57243;52.064;5.116;2022-07-17T15:10:53;23.70;50.40
69932;DHT22;57243;52.064;5.116;2022-07-17T15:13:19;23.70;50.50
69932;DHT22;57243;52.064;5.116;2022-07-17T15:15:44;23.70;50.40
69932;DHT22;57243;52.064;5.116;2022-07-17T15:18:10;23.70;50.50
69932;DHT22;57243;52.064;5.116;2022-07-17T15:20:35;23.70;50.30
69932;DHT22;57243;52.064;5.116;2022-07-17T15:23:02;23.70;50.20
69932;DHT22;57243;52.064;5.116;2022-07-17T15:25:27;23.70;50.20
69932;DHT22;57243;52.064;5.116;2022-07-17T15:27:53;23.70;50.30
69932;DHT22;57243;52.064;5.116;2022-07-17T15:30:19;23.70;50.20
69932;DHT22;57243;52.064;5.116;2022-07-17T15:32:44;23.70;50.20
69932;DHT22;57243;52.064;5.116;2022-07-17T15:35:10;23.70;50.10
69932;DHT22;57243;52.064;5.116;2022-07-17T15:37:36;23.70;50.10
69932;DHT22;57243;52.064;5.116;2022-07-17T15:40:02;23.70;50.20
69932;DHT22;57243;52.064;5.116;2022-07-17T15:42:28;23.70;50.10
69932;DHT22;57243;52.064;5.116;2022-07-17T15:44:54;23.70;50.10
69932;DHT22;57243;52.064;5.116;2022-07-17T15:47:20;23.70;50.10